Science Garden, Philippines

6:18 AM PHT on June 04, 2015 (GMT +0800)
Loyola Heights | | Change Station
CLOSE
Current Station
Personal Weather Station
Location: Quezon City, NCR
Elevation: 187 ft
Nearby Weather Stations

Elev 187 ft 14.64 °N, 121.08 °E | Updated 7 minutes ago

Partly Cloudy
Partly Cloudy
78.3 °F
Feels Like 81 °F
N
3.0
Wind Variable Wind from NE

Today
High -- | Low -- °F
--% Chance of Precip.
Yesterday
High -- | Low -- °F
Precip. -- in
5:25 AM 6:22 PM
Full, 98% visible
Pressure 29.83 in
Visibility 6.2 miles
Clouds Few 2500 ft
Heat Index 81 °F
Dew Point 76 °F
Humidity 93%
Rainfall 0.00 in
Snow Depth Not available.
UV 0.0 out of 12
Pollen Not available.
Air Quality Not available.
Flu Activity Not available.
METAR RPLL 032200Z 00000KT 9999 FEW025 28/26 Q1010 NOSIG RMK A2983

More Conditions Fewer Conditions

Pressure 29.83 in
Visibility 6.2 miles
Clouds Few 2500 ft
Heat Index 81 °F
Dew Point 76 °F
Humidity 93%
Rainfall 0.00 in
Snow Depth Not available.
UV 0.0 out of 12
Pollen Not available.
Air Quality Not available.
Flu Activity Not available.
METAR RPLL 032200Z 00000KT 9999 FEW025 28/26 Q1010 NOSIG RMK A2983

More Conditions Fewer Conditions

10-Day Weather Forecast

×

Almanac

Astronomy

Jun. 04, 2015 Rise Set
Actual Time
Civil Twilight
Nautical Twilight
Astronomical Twilight
Moon
Length of Visible Light
Length of Day
Tomorrow will be .
, % of the Moon is Illuminated

Today's Extremes

Country Highs Country Lows

Community

WunderPhotos

Upload Photos

1,826,291 photos uploaded!

WunderBlogs® & News

Nearby

Air Quality

  Air Quality AQ Index Pollutant
Not available.

Snow Depth

Station Depth Elevation

Earthquake Activity

City Distance Mag. Time & Date
Minimum magnitude displayed is 2.5.

Coastal Water Temperatures

Place Temperature

Stations

Nearby Weather Stations

Station Location Temp. Windchill Dew Point Humidity Wind Precip. Elev Updated Type